sensor_id;sensor_type;location;lat;lon;timestamp;pressure;altitude;pressure_sealevel;temperature;humidity
32452;BME280;45528;52.102;5.242;2022-08-07T00:02:38;102369.0;;;20.0;54.31
32452;BME280;45528;52.102;5.242;2022-08-07T00:04:25;102368.0;;;19.95;54.42
32452;BME280;45528;52.102;5.242;2022-08-07T00:06:13;102372.0;;;19.84;54.63
32452;BME280;45528;52.102;5.242;2022-08-07T00:08:00;102368.0;;;19.75;54.92
32452;BME280;45528;52.102;5.242;2022-08-07T00:09:48;102366.0;;;19.66;55.16
32452;BME280;45528;52.102;5.242;2022-08-07T00:11:35;102364.0;;;19.66;55.24
32452;BME280;45528;52.102;5.242;2022-08-07T00:15:10;102363.0;;;19.64;55.29
32452;BME280;45528;52.102;5.242;2022-08-07T00:16:58;102363.0;;;19.59;55.44
32452;BME280;45528;52.102;5.242;2022-08-07T00:18:45;102361.0;;;19.48;55.58
32452;BME280;45528;52.102;5.242;2022-08-07T00:20:32;102362.0;;;19.43;55.76
32452;BME280;45528;52.102;5.242;2022-08-07T00:22:20;102356.0;;;19.45;55.72
32452;BME280;45528;52.102;5.242;2022-08-07T00:24:07;102355.0;;;19.45;55.75
32452;BME280;45528;52.102;5.242;2022-08-07T00:27:41;102359.0;;;19.48;55.61
32452;BME280;45528;52.102;5.242;2022-08-07T00:29:30;102349.0;;;19.43;55.87
32452;BME280;45528;52.102;5.242;2022-08-07T00:31:17;102346.0;;;19.41;55.79
32452;BME280;45528;52.102;5.242;2022-08-07T00:33:05;102346.0;;;19.47;55.67
32452;BME280;45528;52.102;5.242;2022-08-07T00:34:51;102349.0;;;19.43;55.8
32452;BME280;45528;52.102;5.242;2022-08-07T00:36:38;102342.0;;;19.41;55.69
32452;BME280;45528;52.102;5.242;2022-08-07T00:40:13;102343.0;;;19.36;55.84
32452;BME280;45528;52.102;5.242;2022-08-07T00:42:00;102340.0;;;19.31;55.97
32452;BME280;45528;52.102;5.242;2022-08-07T00:43:49;102334.0;;;19.29;56.01
32452;BME280;45528;52.102;5.242;2022-08-07T00:45:37;102333.0;;;19.3;56.01
32452;BME280;45528;52.102;5.242;2022-08-07T00:47:24;102330.0;;;19.27;55.96
32452;BME280;45528;52.102;5.242;2022-08-07T00:49:12;102332.0;;;19.21;56.05
32452;BME280;45528;52.102;5.242;2022-08-07T00:52:50;102332.0;;;19.25;56.08
32452;BME280;45528;52.102;5.242;2022-08-07T00:54:37;102334.0;;;19.25;56.05
32452;BME280;45528;52.102;5.242;2022-08-07T00:56:25;102330.0;;;19.27;56.1
32452;BME280;45528;52.102;5.242;2022-08-07T00:58:13;102327.0;;;19.3;55.75
32452;BME280;45528;52.102;5.242;2022-08-07T01:00:00;102324.0;;;19.36;55.5
32452;BME280;45528;52.102;5.242;2022-08-07T01:01:50;102327.0;;;19.39;55.55
32452;BME280;45528;52.102;5.242;2022-08-07T01:05:27;102323.0;;;19.27;55.73
32452;BME280;45528;52.102;5.242;2022-08-07T01:07:15;102319.0;;;19.2;55.84
32452;BME280;45528;52.102;5.242;2022-08-07T01:09:03;102324.0;;;19.11;56.11
32452;BME280;45528;52.102;5.242;2022-08-07T01:10:51;102319.0;;;19.11;56.1
32452;BME280;45528;52.102;5.242;2022-08-07T01:12:40;102321.0;;;19.06;56.18
32452;BME280;45528;52.102;5.242;2022-08-07T01:14:28;102322.0;;;19.0;56.33
32452;BME280;45528;52.102;5.242;2022-08-07T01:16:15;102321.0;;;19.02;56.5
32452;BME280;45528;52.102;5.242;2022-08-07T01:19:52;102322.0;;;19.02;56.39
32452;BME280;45528;52.102;5.242;2022-08-07T01:21:43;102314.0;;;19.09;56.23
32452;BME280;45528;52.102;5.242;2022-08-07T01:23:31;102314.0;;;19.11;56.16
32452;BME280;45528;52.102;5.242;2022-08-07T01:25:19;102319.0;;;19.07;56.01
32452;BME280;45528;52.102;5.242;2022-08-07T01:27:06;102324.0;;;19.0;56.33
32452;BME280;45528;52.102;5.242;2022-08-07T01:28:53;102322.0;;;18.98;56.26
32452;BME280;45528;52.102;5.242;2022-08-07T01:32:30;102318.0;;;19.0;56.23
32452;BME280;45528;52.102;5.242;2022-08-07T01:34:17;102320.0;;;19.09;55.8
32452;BME280;45528;52.102;5.242;2022-08-07T01:36:07;102317.0;;;19.12;55.75
32452;BME280;45528;52.102;5.242;2022-08-07T01:37:53;102318.0;;;19.11;55.72
32452;BME280;45528;52.102;5.242;2022-08-07T01:39:42;102316.0;;;19.12;55.62
32452;BME280;45528;52.102;5.242;2022-08-07T01:41:30;102316.0;;;19.05;55.75
32452;BME280;45528;52.102;5.242;2022-08-07T01:45:05;102318.0;;;18.98;55.55
32452;BME280;45528;52.102;5.242;2022-08-07T01:46:53;102319.0;;;18.93;55.45
32452;BME280;45528;52.102;5.242;2022-08-07T01:48:42;102316.0;;;18.89;55.53
32452;BME280;45528;52.102;5.242;2022-08-07T01:50:29;102313.0;;;18.84;55.65
32452;BME280;45528;52.102;5.242;2022-08-07T01:52:17;102313.0;;;18.84;55.83
32452;BME280;45528;52.102;5.242;2022-08-07T01:54:07;102310.0;;;18.79;55.97
32452;BME280;45528;52.102;5.242;2022-08-07T01:57:48;102310.0;;;18.84;55.91
32452;BME280;45528;52.102;5.242;2022-08-07T01:59:41;102308.0;;;18.86;55.92
32452;BME280;45528;52.102;5.242;2022-08-07T02:01:34;102310.0;;;18.72;56.03
32452;BME280;45528;52.102;5.242;2022-08-07T02:03:26;102307.0;;;18.71;56.03
32452;BME280;45528;52.102;5.242;2022-08-07T02:05:17;102310.0;;;18.77;55.94
32452;BME280;45528;52.102;5.242;2022-08-07T02:07:08;102307.0;;;18.84;55.71
32452;BME280;45528;52.102;5.242;2022-08-07T02:08:58;102305.0;;;18.84;55.52
32452;BME280;45528;52.102;5.242;2022-08-07T02:10:53;102309.0;;;18.82;55.66
32452;BME280;45528;52.102;5.242;2022-08-07T02:14:34;102307.0;;;18.75;55.81
32452;BME280;45528;52.102;5.242;2022-08-07T02:16:24;102308.0;;;18.71;55.9
32452;BME280;45528;52.102;5.242;2022-08-07T02:18:12;102305.0;;;18.64;56.08
32452;BME280;45528;52.102;5.242;2022-08-07T02:20:01;102300.0;;;18.66;56.01
32452;BME280;45528;52.102;5.242;2022-08-07T02:21:51;102300.0;;;18.66;56.08
32452;BME280;45528;52.102;5.242;2022-08-07T02:23:40;102302.0;;;18.61;56.13
32452;BME280;45528;52.102;5.242;2022-08-07T02:25:30;102299.0;;;18.61;56.21
32452;BME280;45528;52.102;5.242;2022-08-07T02:29:09;102293.0;;;18.59;56.14
32452;BME280;45528;52.102;5.242;2022-08-07T02:30:57;102297.0;;;18.54;56.36
32452;BME280;45528;52.102;5.242;2022-08-07T02:32:46;102299.0;;;18.52;56.3
32452;BME280;45528;52.102;5.242;2022-08-07T02:34:36;102294.0;;;18.41;56.48
32452;BME280;45528;52.102;5.242;2022-08-07T02:36:25;102292.0;;;18.36;56.68
32452;BME280;45528;52.102;5.242;2022-08-07T02:38:14;102290.0;;;18.38;56.79
32452;BME280;45528;52.102;5.242;2022-08-07T02:40:05;102285.0;;;18.45;56.58
32452;BME280;45528;52.102;5.242;2022-08-07T02:43:43;102288.0;;;18.52;56.52
32452;BME280;45528;52.102;5.242;2022-08-07T02:45:30;102289.0;;;18.59;56.43
32452;BME280;45528;52.102;5.242;2022-08-07T02:47:19;102292.0;;;18.63;56.17
32452;BME280;45528;52.102;5.242;2022-08-07T02:49:07;102295.0;;;18.54;56.15
32452;BME280;45528;52.102;5.242;2022-08-07T02:50:56;102294.0;;;18.45;56.36
32452;BME280;45528;52.102;5.242;2022-08-07T02:52:47;102293.0;;;18.39;56.52
32452;BME280;45528;52.102;5.242;2022-08-07T02:54:52;102291.0;;;18.36;56.47
32452;BME280;45528;52.102;5.242;2022-08-07T02:58:30;102290.0;;;18.32;56.66
32452;BME280;45528;52.102;5.242;2022-08-07T03:00:18;102293.0;;;18.38;56.78
32452;BME280;45528;52.102;5.242;2022-08-07T03:02:06;102291.0;;;18.48;56.61
32452;BME280;45528;52.102;5.242;2022-08-07T03:03:55;102293.0;;;18.45;56.49
32452;BME280;45528;52.102;5.242;2022-08-07T03:05:44;102294.0;;;18.43;56.49
32452;BME280;45528;52.102;5.242;2022-08-07T03:07:32;102295.0;;;18.43;56.37
32452;BME280;45528;52.102;5.242;2022-08-07T03:09:19;102290.0;;;18.43;56.29
32452;BME280;45528;52.102;5.242;2022-08-07T03:12:55;102285.0;;;18.45;56.16
32452;BME280;45528;52.102;5.242;2022-08-07T03:14:43;102289.0;;;18.41;56.16
32452;BME280;45528;52.102;5.242;2022-08-07T03:16:32;102288.0;;;18.41;56.19
32452;BME280;45528;52.102;5.242;2022-08-07T03:18:21;102289.0;;;18.41;56.06
32452;BME280;45528;52.102;5.242;2022-08-07T03:20:09;102287.0;;;18.27;56.24
32452;BME280;45528;52.102;5.242;2022-08-07T03:21:56;102291.0;;;18.2;56.54
32452;BME280;45528;52.102;5.242;2022-08-07T03:25:34;102285.0;;;18.22;56.41
32452;BME280;45528;52.102;5.242;2022-08-07T03:27:25;102288.0;;;18.23;56.32
32452;BME280;45528;52.102;5.242;2022-08-07T03:29:13;102286.0;;;18.23;56.21
32452;BME280;45528;52.102;5.242;2022-08-07T03:31:18;102287.0;;;18.21;56.16
32452;BME280;45528;52.102;5.242;2022-08-07T03:33:17;102286.0;;;18.22;56.04
32452;BME280;45528;52.102;5.242;2022-08-07T03:35:08;102284.0;;;18.2;56.17
32452;BME280;45528;52.102;5.242;2022-08-07T03:37:00;102284.0;;;18.16;56.3
32452;BME280;45528;52.102;5.242;2022-08-07T03:38:49;102281.0;;;18.11;56.35
32452;BME280;45528;52.102;5.242;2022-08-07T03:40:37;102280.0;;;18.11;56.42
32452;BME280;45528;52.102;5.242;2022-08-07T03:44:12;102281.0;;;18.11;56.46
32452;BME280;45528;52.102;5.242;2022-08-07T03:46:00;102281.0;;;18.11;56.34
32452;BME280;45528;52.102;5.242;2022-08-07T03:47:48;102280.0;;;18.12;56.35
32452;BME280;45528;52.102;5.242;2022-08-07T03:49:35;102280.0;;;18.07;56.58
32452;BME280;45528;52.102;5.242;2022-08-07T03:51:23;102280.0;;;18.11;56.45
32452;BME280;45528;52.102;5.242;2022-08-07T03:53:12;102280.0;;;18.18;56.29
32452;BME280;45528;52.102;5.242;2022-08-07T03:56:48;102280.0;;;18.2;56.03
32452;BME280;45528;52.102;5.242;2022-08-07T03:58:36;102278.0;;;18.13;56.14
32452;BME280;45528;52.102;5.242;2022-08-07T04:00:24;102276.0;;;18.09;56.52
32452;BME280;45528;52.102;5.242;2022-08-07T04:02:11;102274.0;;;18.02;56.69
32452;BME280;45528;52.102;5.242;2022-08-07T04:03:59;102277.0;;;18.02;56.7
32452;BME280;45528;52.102;5.242;2022-08-07T04:05:47;102275.0;;;18.09;56.56
32452;BME280;45528;52.102;5.242;2022-08-07T04:09:21;102276.0;;;18.06;56.5
32452;BME280;45528;52.102;5.242;2022-08-07T04:11:09;102280.0;;;18.12;56.5
32452;BME280;45528;52.102;5.242;2022-08-07T04:12:56;102278.0;;;18.04;56.42
32452;BME280;45528;52.102;5.242;2022-08-07T04:14:44;102276.0;;;17.95;56.75
32452;BME280;45528;52.102;5.242;2022-08-07T04:16:32;102278.0;;;17.95;56.99
32452;BME280;45528;52.102;5.242;2022-08-07T04:18:20;102277.0;;;17.95;56.89
32452;BME280;45528;52.102;5.242;2022-08-07T04:21:57;102276.0;;;17.95;57.01
32452;BME280;45528;52.102;5.242;2022-08-07T04:23:45;102280.0;;;17.96;56.96
32452;BME280;45528;52.102;5.242;2022-08-07T04:25:32;102281.0;;;17.95;57.04
32452;BME280;45528;52.102;5.242;2022-08-07T04:27:20;102285.0;;;18.02;56.72
32452;BME280;45528;52.102;5.242;2022-08-07T04:29:09;102284.0;;;18.0;57.0
32452;BME280;45528;52.102;5.242;2022-08-07T04:30:56;102283.0;;;18.06;56.94
32452;BME280;45528;52.102;5.242;2022-08-07T04:34:31;102282.0;;;18.09;56.9
32452;BME280;45528;52.102;5.242;2022-08-07T04:36:18;102291.0;;;18.09;56.88
32452;BME280;45528;52.102;5.242;2022-08-07T04:38:06;102290.0;;;17.98;57.17
32452;BME280;45528;52.102;5.242;2022-08-07T04:39:54;102288.0;;;17.95;57.31
32452;BME280;45528;52.102;5.242;2022-08-07T04:41:40;102285.0;;;17.98;57.36
32452;BME280;45528;52.102;5.242;2022-08-07T04:43:31;102286.0;;;18.0;57.37
32452;BME280;45528;52.102;5.242;2022-08-07T04:47:10;102289.0;;;18.06;57.11
32452;BME280;45528;52.102;5.242;2022-08-07T04:49:06;102290.0;;;18.14;57.0
32452;BME280;45528;52.102;5.242;2022-08-07T04:51:04;102289.0;;;18.16;56.99
32452;BME280;45528;52.102;5.242;2022-08-07T04:53:09;102292.0;;;18.11;57.04
32452;BME280;45528;52.102;5.242;2022-08-07T04:55:02;102294.0;;;18.09;57.16
32452;BME280;45528;52.102;5.242;2022-08-07T04:57:03;102294.0;;;18.09;57.14
32452;BME280;45528;52.102;5.242;2022-08-07T04:59:06;102294.0;;;18.09;57.27
32452;BME280;45528;52.102;5.242;2022-08-07T05:01:02;102296.0;;;18.04;57.47
32452;BME280;45528;52.102;5.242;2022-08-07T05:02:55;102296.0;;;18.12;57.36
32452;BME280;45528;52.102;5.242;2022-08-07T05:04:54;102295.0;;;18.21;57.17
32452;BME280;45528;52.102;5.242;2022-08-07T05:06:51;102289.0;;;18.2;57.26
32452;BME280;45528;52.102;5.242;2022-08-07T05:08:57;102293.0;;;18.25;57.33
32452;BME280;45528;52.102;5.242;2022-08-07T05:10:51;102290.0;;;18.27;57.37
32452;BME280;45528;52.102;5.242;2022-08-07T05:12:53;102291.0;;;18.34;57.35
32452;BME280;45528;52.102;5.242;2022-08-07T05:16:35;102298.0;;;18.41;57.13
32452;BME280;45528;52.102;5.242;2022-08-07T05:18:28;102300.0;;;18.5;56.98
32452;BME280;45528;52.102;5.242;2022-08-07T05:20:17;102303.0;;;18.55;57.03
32452;BME280;45528;52.102;5.242;2022-08-07T05:22:08;102306.0;;;18.59;57.0
32452;BME280;45528;52.102;5.242;2022-08-07T05:23:57;102305.0;;;18.63;56.97
32452;BME280;45528;52.102;5.242;2022-08-07T05:25:47;102306.0;;;18.68;57.05
32452;BME280;45528;52.102;5.242;2022-08-07T05:27:36;102308.0;;;18.72;57.02
32452;BME280;45528;52.102;5.242;2022-08-07T05:31:17;102310.0;;;18.79;56.9
32452;BME280;45528;52.102;5.242;2022-08-07T05:33:04;102308.0;;;18.87;56.88
32452;BME280;45528;52.102;5.242;2022-08-07T05:34:52;102307.0;;;18.86;57.08
32452;BME280;45528;52.102;5.242;2022-08-07T05:36:43;102308.0;;;18.91;57.08
32452;BME280;45528;52.102;5.242;2022-08-07T05:38:32;102305.0;;;19.02;56.84
32452;BME280;45528;52.102;5.242;2022-08-07T05:40:20;102305.0;;;19.09;56.85
32452;BME280;45528;52.102;5.242;2022-08-07T05:42:08;102305.0;;;19.2;56.73
32452;BME280;45528;52.102;5.242;2022-08-07T05:45:43;102305.0;;;19.31;56.67
32452;BME280;45528;52.102;5.242;2022-08-07T05:47:32;102299.0;;;19.43;56.36
32452;BME280;45528;52.102;5.242;2022-08-07T05:49:20;102297.0;;;19.55;56.16
32452;BME280;45528;52.102;5.242;2022-08-07T05:51:08;102299.0;;;19.77;55.25
32452;BME280;45528;52.102;5.242;2022-08-07T05:52:56;102302.0;;;19.82;55.62
32452;BME280;45528;52.102;5.242;2022-08-07T05:54:44;102300.0;;;19.95;55.45
32452;BME280;45528;52.102;5.242;2022-08-07T05:58:20;102309.0;;;20.05;55.32
32452;BME280;45528;52.102;5.242;2022-08-07T06:00:10;102314.0;;;20.14;55.02
32452;BME280;45528;52.102;5.242;2022-08-07T06:01:57;102318.0;;;20.28;55.33
32452;BME280;45528;52.102;5.242;2022-08-07T06:03:48;102320.0;;;20.43;55.16
32452;BME280;45528;52.102;5.242;2022-08-07T06:05:41;102318.0;;;20.54;55.17
32452;BME280;45528;52.102;5.242;2022-08-07T06:07:31;102321.0;;;20.69;54.75
32452;BME280;45528;52.102;5.242;2022-08-07T06:09:19;102320.0;;;20.88;54.25
32452;BME280;45528;52.102;5.242;2022-08-07T06:12:54;102311.0;;;20.87;54.33
32452;BME280;45528;52.102;5.242;2022-08-07T06:14:41;102309.0;;;20.92;54.62
32452;BME280;45528;52.102;5.242;2022-08-07T06:16:32;102308.0;;;21.02;54.29
32452;BME280;45528;52.102;5.242;2022-08-07T06:18:20;102310.0;;;21.18;54.08
32452;BME280;45528;52.102;5.242;2022-08-07T06:20:08;102308.0;;;21.33;53.83
32452;BME280;45528;52.102;5.242;2022-08-07T06:21:56;102311.0;;;21.49;53.4
32452;BME280;45528;52.102;5.242;2022-08-07T06:25:31;102317.0;;;21.87;52.91
32452;BME280;45528;52.102;5.242;2022-08-07T06:27:19;102320.0;;;21.87;52.9
32452;BME280;45528;52.102;5.242;2022-08-07T06:29:08;102324.0;;;22.04;52.64
32452;BME280;45528;52.102;5.242;2022-08-07T06:30:55;102327.0;;;22.2;52.01
32452;BME280;45528;52.102;5.242;2022-08-07T06:32:43;102327.0;;;22.25;51.42
32452;BME280;45528;52.102;5.242;2022-08-07T06:34:30;102327.0;;;22.41;49.75
32452;BME280;45528;52.102;5.242;2022-08-07T06:38:05;102326.0;;;22.59;47.91
32452;BME280;45528;52.102;5.242;2022-08-07T06:39:52;102323.0;;;22.74;47.89
32452;BME280;45528;52.102;5.242;2022-08-07T06:41:42;102320.0;;;22.85;47.52
32452;BME280;45528;52.102;5.242;2022-08-07T06:43:36;102325.0;;;22.98;46.94
32452;BME280;45528;52.102;5.242;2022-08-07T06:45:25;102316.0;;;23.14;46.87
32452;BME280;45528;52.102;5.242;2022-08-07T06:47:13;102315.0;;;23.21;47.32
32452;BME280;45528;52.102;5.242;2022-08-07T06:49:01;102314.0;;;23.22;47.11
32452;BME280;45528;52.102;5.242;2022-08-07T06:52:43;102318.0;;;23.43;47.03
32452;BME280;45528;52.102;5.242;2022-08-07T06:54:32;102319.0;;;23.48;46.42
32452;BME280;45528;52.102;5.242;2022-08-07T06:56:39;102319.0;;;23.52;46.03
32452;BME280;45528;52.102;5.242;2022-08-07T06:58:28;102320.0;;;23.76;45.64
32452;BME280;45528;52.102;5.242;2022-08-07T07:00:16;102317.0;;;23.79;44.78
32452;BME280;45528;52.102;5.242;2022-08-07T07:02:04;102321.0;;;23.91;44.84
32452;BME280;45528;52.102;5.242;2022-08-07T07:03:56;102317.0;;;23.99;45.38
32452;BME280;45528;52.102;5.242;2022-08-07T07:05:43;102312.0;;;24.2;44.56
32452;BME280;45528;52.102;5.242;2022-08-07T07:09:21;102309.0;;;24.29;44.45
32452;BME280;45528;52.102;5.242;2022-08-07T07:11:09;102311.0;;;24.21;44.05
32452;BME280;45528;52.102;5.242;2022-08-07T07:13:00;102314.0;;;24.18;43.48
32452;BME280;45528;52.102;5.242;2022-08-07T07:15:00;102317.0;;;24.14;43.66
32452;BME280;45528;52.102;5.242;2022-08-07T07:16:50;102322.0;;;24.21;43.36
32452;BME280;45528;52.102;5.242;2022-08-07T07:18:43;102327.0;;;24.21;43.59
32452;BME280;45528;52.102;5.242;2022-08-07T07:20:36;102331.0;;;24.3;42.96
32452;BME280;45528;52.102;5.242;2022-08-07T07:22:28;102335.0;;;24.5;42.86
32452;BME280;45528;52.102;5.242;2022-08-07T07:26:06;102334.0;;;24.55;43.28
32452;BME280;45528;52.102;5.242;2022-08-07T07:27:57;102338.0;;;24.62;42.62
32452;BME280;45528;52.102;5.242;2022-08-07T07:29:50;102341.0;;;24.71;42.79
32452;BME280;45528;52.102;5.242;2022-08-07T07:31:42;102344.0;;;24.75;43.38
32452;BME280;45528;52.102;5.242;2022-08-07T07:33:33;102342.0;;;24.88;42.49
32452;BME280;45528;52.102;5.242;2022-08-07T07:35:21;102340.0;;;24.93;42.64
32452;BME280;45528;52.102;5.242;2022-08-07T07:37:09;102340.0;;;25.0;43.54
32452;BME280;45528;52.102;5.242;2022-08-07T07:40:49;102338.0;;;25.02;42.56
32452;BME280;45528;52.102;5.242;2022-08-07T07:42:37;102338.0;;;25.07;42.91
32452;BME280;45528;52.102;5.242;2022-08-07T07:44:27;102330.0;;;25.09;42.36
32452;BME280;45528;52.102;5.242;2022-08-07T07:46:14;102330.0;;;25.22;43.03
32452;BME280;45528;52.102;5.242;2022-08-07T07:48:04;102328.0;;;25.3;43.0
32452;BME280;45528;52.102;5.242;2022-08-07T07:49:53;102326.0;;;25.24;41.65
32452;BME280;45528;52.102;5.242;2022-08-07T07:53:33;102327.0;;;25.35;41.95
32452;BME280;45528;52.102;5.242;2022-08-07T07:55:24;102331.0;;;25.11;41.75
32452;BME280;45528;52.102;5.242;2022-08-07T07:57:13;102325.0;;;25.27;41.4
32452;BME280;45528;52.102;5.242;2022-08-07T07:59:03;102324.0;;;25.42;41.71
32452;BME280;45528;52.102;5.242;2022-08-07T08:00:54;102319.0;;;25.69;41.53
32452;BME280;45528;52.102;5.242;2022-08-07T08:02:44;102317.0;;;25.79;40.98
32452;BME280;45528;52.102;5.242;2022-08-07T08:04:35;102314.0;;;25.79;40.71
32452;BME280;45528;52.102;5.242;2022-08-07T08:06:23;102315.0;;;25.64;40.97
32452;BME280;45528;52.102;5.242;2022-08-07T08:09:59;102314.0;;;25.84;40.85
32452;BME280;45528;52.102;5.242;2022-08-07T08:11:47;102310.0;;;25.76;40.78
32452;BME280;45528;52.102;5.242;2022-08-07T08:13:37;102313.0;;;25.75;41.34
32452;BME280;45528;52.102;5.242;2022-08-07T08:15:29;102315.0;;;25.92;40.49
32452;BME280;45528;52.102;5.242;2022-08-07T08:17:19;102314.0;;;26.16;40.64
32452;BME280;45528;52.102;5.242;2022-08-07T08:19:11;102315.0;;;26.07;40.07
32452;BME280;45528;52.102;5.242;2022-08-07T08:21:01;102316.0;;;26.17;39.49
32452;BME280;45528;52.102;5.242;2022-08-07T08:27:10;102307.0;;;26.23;39.78
32452;BME280;45528;52.102;5.242;2022-08-07T08:28:59;102301.0;;;26.46;38.35
32452;BME280;45528;52.102;5.242;2022-08-07T08:30:52;102306.0;;;26.45;39.32
32452;BME280;45528;52.102;5.242;2022-08-07T08:32:44;102308.0;;;26.5;39.14
32452;BME280;45528;52.102;5.242;2022-08-07T08:34:35;102307.0;;;26.47;38.85
32452;BME280;45528;52.102;5.242;2022-08-07T08:36:28;102303.0;;;26.32;38.62
32452;BME280;45528;52.102;5.242;2022-08-07T08:38:19;102301.0;;;26.49;39.29
32452;BME280;45528;52.102;5.242;2022-08-07T08:40:15;102302.0;;;26.43;38.76
32452;BME280;45528;52.102;5.242;2022-08-07T08:42:06;102302.0;;;26.41;38.69
32452;BME280;45528;52.102;5.242;2022-08-07T08:46:05;102298.0;;;26.47;38.12
32452;BME280;45528;52.102;5.242;2022-08-07T08:48:08;102295.0;;;26.45;38.56
32452;BME280;45528;52.102;5.242;2022-08-07T08:50:10;102292.0;;;26.51;38.49
32452;BME280;45528;52.102;5.242;2022-08-07T08:52:00;102295.0;;;26.53;38.29
32452;BME280;45528;52.102;5.242;2022-08-07T08:53:55;102297.0;;;26.63;38.67
32452;BME280;45528;52.102;5.242;2022-08-07T08:55:46;102295.0;;;26.75;38.49
32452;BME280;45528;52.102;5.242;2022-08-07T08:57:39;102288.0;;;26.73;38.35
32452;BME280;45528;52.102;5.242;2022-08-07T08:59:33;102289.0;;;26.85;37.75
32452;BME280;45528;52.102;5.242;2022-08-07T09:01:31;102289.0;;;27.22;37.56
32452;BME280;45528;52.102;5.242;2022-08-07T09:03:26;102291.0;;;27.02;36.89
32452;BME280;45528;52.102;5.242;2022-08-07T09:05:27;102288.0;;;27.16;37.37
32452;BME280;45528;52.102;5.242;2022-08-07T09:07:28;102285.0;;;27.11;38.08
32452;BME280;45528;52.102;5.242;2022-08-07T09:09:34;102285.0;;;27.26;37.76
32452;BME280;45528;52.102;5.242;2022-08-07T09:11:40;102287.0;;;27.32;37.5
32452;BME280;45528;52.102;5.242;2022-08-07T09:13:34;102286.0;;;27.29;36.85
32452;BME280;45528;52.102;5.242;2022-08-07T09:15:32;102294.0;;;27.51;35.64
32452;BME280;45528;52.102;5.242;2022-08-07T09:19:29;102288.0;;;27.46;35.78
32452;BME280;45528;52.102;5.242;2022-08-07T09:21:30;102288.0;;;27.45;36.35
32452;BME280;45528;52.102;5.242;2022-08-07T09:23:30;102284.0;;;27.39;36.64
32452;BME280;45528;52.102;5.242;2022-08-07T09:25:24;102282.0;;;27.59;35.94
32452;BME280;45528;52.102;5.242;2022-08-07T09:27:22;102284.0;;;27.57;36.53
32452;BME280;45528;52.102;5.242;2022-08-07T09:29:21;102285.0;;;27.62;35.85
32452;BME280;45528;52.102;5.242;2022-08-07T09:31:15;102285.0;;;27.61;35.82
32452;BME280;45528;52.102;5.242;2022-08-07T09:33:11;102283.0;;;27.56;35.71
32452;BME280;45528;52.102;5.242;2022-08-07T09:35:13;102285.0;;;27.73;35.86
32452;BME280;45528;52.102;5.242;2022-08-07T09:37:13;102285.0;;;27.77;35.96
32452;BME280;45528;52.102;5.242;2022-08-07T09:39:18;102280.0;;;27.49;35.81
32452;BME280;45528;52.102;5.242;2022-08-07T09:41:16;102281.0;;;27.93;35.25
32452;BME280;45528;52.102;5.242;2022-08-07T09:43:18;102280.0;;;27.75;35.07
32452;BME280;45528;52.102;5.242;2022-08-07T09:45:14;102275.0;;;27.93;34.92
32452;BME280;45528;52.102;5.242;2022-08-07T09:47:12;102277.0;;;28.07;34.4
32452;BME280;45528;52.102;5.242;2022-08-07T09:49:17;102277.0;;;28.13;34.29
32452;BME280;45528;52.102;5.242;2022-08-07T09:51:15;102278.0;;;28.35;33.8
32452;BME280;45528;52.102;5.242;2022-08-07T09:53:23;102275.0;;;28.47;33.67
32452;BME280;45528;52.102;5.242;2022-08-07T09:55:17;102276.0;;;28.57;33.21
32452;BME280;45528;52.102;5.242;2022-08-07T10:00:38;102269.0;;;28.35;33.4
32452;BME280;45528;52.102;5.242;2022-08-07T10:04:05;102268.0;;;28.4;33.92
32452;BME280;45528;52.102;5.242;2022-08-07T10:06:48;102264.0;;;28.8;33.67
32452;BME280;45528;52.102;5.242;2022-08-07T10:08:51;102266.0;;;28.84;32.93
32452;BME280;45528;52.102;5.242;2022-08-07T10:12:13;102262.0;;;28.64;33.35
32452;BME280;45528;52.102;5.242;2022-08-07T10:14:16;102262.0;;;28.72;33.65
32452;BME280;45528;52.102;5.242;2022-08-07T10:16:28;102255.0;;;28.73;33.31
32452;BME280;45528;52.102;5.242;2022-08-07T10:18:39;102256.0;;;28.5;33.19
32452;BME280;45528;52.102;5.242;2022-08-07T10:21:14;102250.0;;;28.49;32.92
32452;BME280;45528;52.102;5.242;2022-08-07T10:23:29;102250.0;;;28.47;33.08
32452;BME280;45528;52.102;5.242;2022-08-07T10:25:42;102253.0;;;28.44;32.51
32452;BME280;45528;52.102;5.242;2022-08-07T10:27:46;102243.0;;;28.51;32.21
32452;BME280;45528;52.102;5.242;2022-08-07T10:30:54;102244.0;;;28.39;32.76
32452;BME280;45528;52.102;5.242;2022-08-07T10:33:06;102234.0;;;28.67;32.94
32452;BME280;45528;52.102;5.242;2022-08-07T10:35:54;102238.0;;;28.83;31.96
32452;BME280;45528;52.102;5.242;2022-08-07T10:38:01;102233.0;;;28.93;32.51
32452;BME280;45528;52.102;5.242;2022-08-07T10:40:05;102233.0;;;28.86;32.25
32452;BME280;45528;52.102;5.242;2022-08-07T10:42:06;102227.0;;;28.76;32.49
32452;BME280;45528;52.102;5.242;2022-08-07T10:44:06;102226.0;;;28.71;32.01
32452;BME280;45528;52.102;5.242;2022-08-07T10:46:00;102226.0;;;28.78;31.82
32452;BME280;45528;52.102;5.242;2022-08-07T10:48:12;102225.0;;;28.94;31.94
32452;BME280;45528;52.102;5.242;2022-08-07T10:50:05;102226.0;;;28.98;32.6
32452;BME280;45528;52.102;5.242;2022-08-07T10:52:01;102219.0;;;28.8;32.6
32452;BME280;45528;52.102;5.242;2022-08-07T10:53:56;102218.0;;;28.94;32.03
32452;BME280;45528;52.102;5.242;2022-08-07T10:56:03;102217.0;;;28.94;31.77
32452;BME280;45528;52.102;5.242;2022-08-07T11:00:05;102218.0;;;29.0;31.61
32452;BME280;45528;52.102;5.242;2022-08-07T11:01:56;102213.0;;;28.9;31.52
32452;BME280;45528;52.102;5.242;2022-08-07T11:03:54;102210.0;;;28.97;32.3
32452;BME280;45528;52.102;5.242;2022-08-07T11:05:51;102206.0;;;29.13;31.81
32452;BME280;45528;52.102;5.242;2022-08-07T11:07:49;102210.0;;;29.28;31.9
32452;BME280;45528;52.102;5.242;2022-08-07T11:09:54;102210.0;;;29.23;30.72
32452;BME280;45528;52.102;5.242;2022-08-07T11:11:47;102212.0;;;29.35;30.86
32452;BME280;45528;52.102;5.242;2022-08-07T11:13:44;102205.0;;;29.3;31.98
32452;BME280;45528;52.102;5.242;2022-08-07T11:15:38;102201.0;;;29.31;31.5
32452;BME280;45528;52.102;5.242;2022-08-07T11:17:32;102199.0;;;29.34;31.45